createdAt,value
2023-04-20T00:00:43.000Z,278.02
2023-04-20T00:02:10.000Z,278.02
2023-04-20T00:04:16.000Z,278.02
2023-04-20T00:05:43.000Z,278.02
2023-04-20T00:07:49.000Z,277.96
2023-04-20T00:09:15.000Z,278.02
2023-04-20T00:11:22.000Z,278.21
2023-04-20T00:12:48.000Z,278.27
2023-04-20T00:14:54.000Z,278.4
2023-04-20T00:16:21.000Z,278.4
2023-04-20T00:18:27.000Z,278.4
2023-04-20T00:19:53.000Z,278.52
2023-04-20T00:21:59.000Z,278.59
2023-04-20T00:23:26.000Z,278.59
2023-04-20T00:25:32.000Z,278.52
2023-04-20T00:26:59.000Z,278.52
2023-04-20T00:29:05.000Z,278.46
2023-04-20T00:30:31.000Z,278.46
2023-04-20T00:32:38.000Z,278.52
2023-04-20T00:35:29.000Z,278.4
2023-04-20T00:36:55.000Z,278.4
2023-04-20T00:39:01.000Z,278.4
2023-04-20T00:40:28.000Z,278.46
2023-04-20T00:42:34.000Z,278.46
2023-04-20T00:44:00.000Z,278.4
2023-04-20T00:46:07.000Z,278.34
2023-04-20T00:47:33.000Z,278.34
2023-04-20T00:49:39.000Z,278.34
2023-04-20T00:51:06.000Z,278.34
2023-04-20T00:53:12.000Z,278.27
2023-04-20T00:54:39.000Z,278.4
2023-04-20T00:56:45.000Z,278.4
2023-04-20T00:58:11.000Z,278.4
2023-04-20T01:00:17.000Z,278.4
2023-04-20T01:01:44.000Z,278.4
2023-04-20T01:03:50.000Z,278.34
2023-04-20T01:05:17.000Z,278.27
2023-04-20T01:07:23.000Z,278.34
2023-04-20T01:08:50.000Z,278.34
2023-04-20T01:10:56.000Z,278.34
2023-04-20T01:13:47.000Z,278.09
2023-04-20T01:15:13.000Z,278.09
2023-04-20T01:17:20.000Z,278.15
2023-04-20T01:18:46.000Z,278.21
2023-04-20T01:20:52.000Z,278.21
2023-04-20T01:22:19.000Z,278.27
2023-04-20T01:24:25.000Z,278.21
2023-04-20T01:25:52.000Z,278.09
2023-04-20T01:27:58.000Z,277.96
2023-04-20T01:29:24.000Z,278.21
2023-04-20T01:31:30.000Z,278.15
2023-04-20T01:32:57.000Z,278.15
2023-04-20T01:35:03.000Z,278.09
2023-04-20T01:36:30.000Z,278.02
2023-04-20T01:38:36.000Z,277.9
2023-04-20T01:40:02.000Z,278.02
2023-04-20T01:42:08.000Z,278.02
2023-04-20T01:43:35.000Z,278.02
2023-04-20T01:45:41.000Z,278.02
2023-04-20T01:47:07.000Z,277.96
2023-04-20T01:49:14.000Z,278.09
2023-04-20T01:52:05.000Z,278.09
2023-04-20T01:53:32.000Z,278.09
2023-04-20T01:55:38.000Z,277.96
2023-04-20T01:57:04.000Z,277.84
2023-04-20T01:59:11.000Z,277.71
2023-04-20T02:00:37.000Z,277.77
2023-04-20T02:02:43.000Z,277.84
2023-04-20T02:04:10.000Z,277.84
2023-04-20T02:06:16.000Z,277.77
2023-04-20T02:07:42.000Z,277.77
2023-04-20T02:09:48.000Z,277.71
2023-04-20T02:11:15.000Z,277.65
2023-04-20T02:13:21.000Z,277.77
2023-04-20T02:14:48.000Z,277.84
2023-04-20T02:16:54.000Z,277.84
2023-04-20T02:18:20.000Z,277.77
2023-04-20T02:20:26.000Z,277.77
2023-04-20T02:21:53.000Z,277.77
2023-04-20T02:23:59.000Z,277.77
2023-04-20T02:25:25.000Z,277.84
2023-04-20T02:27:32.000Z,277.84
2023-04-20T02:30:23.000Z,277.84
2023-04-20T02:31:49.000Z,277.9
2023-04-20T02:33:55.000Z,277.71
2023-04-20T02:35:22.000Z,277.71
2023-04-20T02:37:28.000Z,277.65
2023-04-20T02:38:55.000Z,277.59
2023-04-20T02:41:01.000Z,277.65
2023-04-20T02:42:27.000Z,277.84
2023-04-20T02:44:33.000Z,277.84
2023-04-20T02:46:00.000Z,277.84
2023-04-20T02:48:06.000Z,277.77
2023-04-20T02:49:33.000Z,277.77
2023-04-20T02:51:39.000Z,277.65
2023-04-20T02:53:05.000Z,277.71
2023-04-20T02:55:11.000Z,277.59
2023-04-20T02:56:38.000Z,277.46
2023-04-20T02:58:44.000Z,277.52
2023-04-20T03:00:11.000Z,277.46
2023-04-20T03:02:17.000Z,277.52
2023-04-20T03:03:43.000Z,277.52
2023-04-20T03:05:50.000Z,277.59
2023-04-20T03:08:42.000Z,277.4
2023-04-20T03:10:08.000Z,277.34
2023-04-20T03:12:14.000Z,277.34
2023-04-20T03:13:41.000Z,277.27
2023-04-20T03:15:47.000Z,277.27
2023-04-20T03:17:14.000Z,277.34
2023-04-20T03:19:20.000Z,277.52
2023-04-20T03:20:46.000Z,277.59
2023-04-20T03:22:52.000Z,277.46
2023-04-20T03:24:19.000Z,277.46
2023-04-20T03:26:25.000Z,277.4
2023-04-20T03:27:51.000Z,277.4
2023-04-20T03:29:57.000Z,277.27
2023-04-20T03:31:24.000Z,277.46
2023-04-20T03:33:31.000Z,277.34
2023-04-20T03:34:57.000Z,277.46
2023-04-20T03:37:03.000Z,277.65
2023-04-20T03:38:30.000Z,277.71
2023-04-20T03:40:36.000Z,277.77
2023-04-20T03:42:02.000Z,277.84
2023-04-20T03:44:09.000Z,277.84
2023-04-20T03:46:59.000Z,277.65
2023-04-20T03:48:26.000Z,277.65
2023-04-20T03:50:32.000Z,277.46
2023-04-20T03:51:58.000Z,277.4
2023-04-20T03:54:05.000Z,277.46
2023-04-20T03:55:31.000Z,277.46
2023-04-20T03:57:37.000Z,277.46
2023-04-20T03:59:04.000Z,277.34
2023-04-20T04:01:10.000Z,277.34
2023-04-20T04:02:36.000Z,277.4
2023-04-20T04:04:43.000Z,277.46
2023-04-20T04:06:09.000Z,277.52
2023-04-20T04:08:15.000Z,277.52
2023-04-20T04:09:42.000Z,277.27
2023-04-20T04:11:48.000Z,277.21
2023-04-20T04:13:15.000Z,277.27
2023-04-20T04:15:21.000Z,277.21
2023-04-20T04:16:47.000Z,277.27
2023-04-20T04:18:53.000Z,277.27
2023-04-20T04:20:20.000Z,277.34
2023-04-20T04:22:26.000Z,277.34
2023-04-20T04:25:19.000Z,277.27
2023-04-20T04:26:46.000Z,277.27
2023-04-20T04:28:52.000Z,277.27
2023-04-20T04:30:18.000Z,277.21
2023-04-20T04:32:24.000Z,277.27
2023-04-20T04:33:51.000Z,277.27
2023-04-20T04:35:57.000Z,277.27
2023-04-20T04:37:24.000Z,277.34
2023-04-20T04:39:30.000Z,277.34
2023-04-20T04:40:56.000Z,277.4
2023-04-20T04:43:02.000Z,277.27
2023-04-20T04:44:29.000Z,277.27
2023-04-20T04:46:35.000Z,277.27
2023-04-20T04:48:02.000Z,277.27
2023-04-20T04:50:11.000Z,277.21
2023-04-20T04:51:37.000Z,277.34
2023-04-20T04:53:43.000Z,277.4
2023-04-20T04:55:10.000Z,277.46
2023-04-20T04:57:19.000Z,277.46
2023-04-20T04:58:45.000Z,277.4
2023-04-20T05:00:51.000Z,277.34
2023-04-20T05:03:42.000Z,277.34
2023-04-20T05:05:09.000Z,277.4
2023-04-20T05:07:15.000Z,277.46
2023-04-20T05:08:42.000Z,277.46
2023-04-20T05:10:48.000Z,277.34
2023-04-20T05:12:15.000Z,277.34
2023-04-20T05:14:21.000Z,277.4
2023-04-20T05:15:47.000Z,277.4
2023-04-20T05:17:53.000Z,277.15
2023-04-20T05:19:20.000Z,277.15
2023-04-20T05:21:26.000Z,277.27
2023-04-20T05:22:52.000Z,277.27
2023-04-20T05:24:58.000Z,277.27
2023-04-20T05:26:25.000Z,277.34
2023-04-20T05:28:31.000Z,277.21
2023-04-20T05:29:58.000Z,277.21
2023-04-20T05:32:20.000Z,277.34
2023-04-20T05:33:47.000Z,277.34
2023-04-20T05:35:53.000Z,277.15
2023-04-20T05:37:20.000Z,277.21
2023-04-20T05:39:26.000Z,277.34
2023-04-20T05:42:17.000Z,277.4
2023-04-20T05:43:44.000Z,277.46
2023-04-20T05:45:50.000Z,277.34
2023-04-20T05:47:16.000Z,277.46
2023-04-20T05:49:22.000Z,277.4
2023-04-20T05:50:49.000Z,277.4
2023-04-20T05:52:55.000Z,277.4
2023-04-20T05:54:21.000Z,277.4
2023-04-20T05:56:27.000Z,277.52
2023-04-20T05:57:54.000Z,277.52
2023-04-20T06:00:00.000Z,277.46
2023-04-20T06:01:27.000Z,277.52
2023-04-20T06:03:33.000Z,277.46
2023-04-20T06:05:00.000Z,277.46
2023-04-20T06:07:06.000Z,277.34
2023-04-20T06:08:32.000Z,277.27
2023-04-20T06:10:39.000Z,277.46
2023-04-20T06:12:05.000Z,277.46
2023-04-20T06:14:11.000Z,277.65
2023-04-20T06:15:38.000Z,277.59
2023-04-20T06:17:44.000Z,277.52
2023-04-20T06:20:35.000Z,277.46
2023-04-20T06:22:01.000Z,277.4
2023-04-20T06:24:08.000Z,277.4
2023-04-20T06:25:34.000Z,277.52
2023-04-20T06:27:40.000Z,277.65
2023-04-20T06:29:07.000Z,277.59
2023-04-20T06:31:13.000Z,277.46
2023-04-20T06:32:39.000Z,277.52
2023-04-20T06:34:46.000Z,277.52
2023-04-20T06:36:12.000Z,277.65
2023-04-20T06:38:18.000Z,277.84
2023-04-20T06:39:45.000Z,277.77
2023-04-20T06:41:51.000Z,277.84
2023-04-20T06:43:17.000Z,277.84
2023-04-20T06:45:23.000Z,277.84
2023-04-20T06:46:50.000Z,277.84
2023-04-20T06:48:56.000Z,278.02
2023-04-20T06:50:23.000Z,278.09
2023-04-20T06:52:29.000Z,278.15
2023-04-20T06:53:55.000Z,278.15
2023-04-20T06:56:01.000Z,278.27
2023-04-20T06:58:52.000Z,278.02
2023-04-20T07:00:19.000Z,278.09
2023-04-20T07:02:25.000Z,278.09
2023-04-20T07:03:52.000Z,278.15
2023-04-20T07:05:58.000Z,278.21
2023-04-20T07:07:25.000Z,278.21
2023-04-20T07:09:31.000Z,278.27
2023-04-20T07:10:57.000Z,278.34
2023-04-20T07:13:03.000Z,278.46
2023-04-20T07:14:30.000Z,278.46
2023-04-20T07:16:36.000Z,278.52
2023-04-20T07:18:03.000Z,278.59
2023-04-20T07:20:09.000Z,278.34
2023-04-20T07:21:35.000Z,278.34
2023-04-20T07:23:42.000Z,278.46
2023-04-20T07:25:09.000Z,278.52
2023-04-20T07:27:15.000Z,278.52
2023-04-20T07:28:42.000Z,278.59
2023-04-20T07:30:49.000Z,278.65
2023-04-20T07:32:15.000Z,278.65
2023-04-20T07:34:21.000Z,278.71
2023-04-20T07:37:12.000Z,278.65
2023-04-20T07:38:39.000Z,278.71
2023-04-20T07:40:45.000Z,278.71
2023-04-20T07:42:12.000Z,278.59
2023-04-20T07:44:18.000Z,278.71
2023-04-20T07:45:44.000Z,278.65
2023-04-20T07:47:50.000Z,278.71
2023-04-20T07:49:17.000Z,278.77
2023-04-20T07:51:24.000Z,278.84
2023-04-20T07:52:50.000Z,278.77
2023-04-20T07:54:56.000Z,278.84
2023-04-20T07:56:23.000Z,278.9
2023-04-20T07:58:29.000Z,278.9
2023-04-20T07:59:56.000Z,278.9
2023-04-20T08:02:02.000Z,278.9
2023-04-20T08:03:28.000Z,278.9
2023-04-20T08:05:35.000Z,278.84
2023-04-20T08:07:02.000Z,278.84
2023-04-20T08:09:08.000Z,278.77
2023-04-20T08:10:37.000Z,278.84
2023-04-20T08:12:43.000Z,278.96
2023-04-20T08:15:35.000Z,279.09
2023-04-20T08:17:01.000Z,279.09
2023-04-20T08:19:07.000Z,279.15
2023-04-20T08:20:34.000Z,279.21
2023-04-20T08:22:40.000Z,279.4
2023-04-20T08:24:07.000Z,279.59
2023-04-20T08:26:13.000Z,279.59
2023-04-20T08:27:39.000Z,279.59
2023-04-20T08:29:45.000Z,279.52
2023-04-20T08:31:12.000Z,279.46
2023-04-20T08:33:18.000Z,279.46
2023-04-20T08:34:45.000Z,279.59
2023-04-20T08:36:51.000Z,279.65
2023-04-20T08:38:17.000Z,279.65
2023-04-20T08:40:34.000Z,279.71
2023-04-20T08:42:01.000Z,279.71
2023-04-20T08:44:07.000Z,279.71
2023-04-20T08:45:33.000Z,279.84
2023-04-20T08:47:39.000Z,279.9
2023-04-20T08:49:06.000Z,279.9
2023-04-20T08:51:12.000Z,280.21
2023-04-20T08:54:03.000Z,280.59
2023-04-20T08:55:30.000Z,280.65
2023-04-20T08:57:36.000Z,280.71
2023-04-20T08:59:03.000Z,280.65
2023-04-20T09:01:09.000Z,280.59
2023-04-20T09:02:41.000Z,280.52
2023-04-20T09:04:48.000Z,280.52
2023-04-20T09:06:15.000Z,280.59
2023-04-20T09:08:21.000Z,280.65
2023-04-20T09:09:47.000Z,280.71
2023-04-20T09:11:53.000Z,280.65
2023-04-20T09:13:20.000Z,280.59
2023-04-20T09:15:26.000Z,280.59
2023-04-20T09:16:53.000Z,280.71
2023-04-20T09:18:59.000Z,280.84
2023-04-20T09:20:25.000Z,280.84
2023-04-20T09:22:32.000Z,281.15
2023-04-20T09:23:58.000Z,281.09
2023-04-20T09:26:04.000Z,280.96
2023-04-20T09:27:31.000Z,280.96
2023-04-20T09:29:37.000Z,280.96
2023-04-20T09:32:28.000Z,280.9
2023-04-20T09:33:55.000Z,280.96
2023-04-20T09:36:01.000Z,281.15
2023-04-20T09:37:27.000Z,281.46
2023-04-20T09:39:33.000Z,281.59
2023-04-20T09:41:00.000Z,281.77
2023-04-20T09:43:06.000Z,282.15
2023-04-20T09:44:32.000Z,282.21
2023-04-20T09:46:39.000Z,282.27
2023-04-20T09:48:05.000Z,282.15
2023-04-20T09:50:12.000Z,282.09
2023-04-20T09:51:53.000Z,281.9
2023-04-20T09:53:59.000Z,281.9
2023-04-20T09:55:26.000Z,281.96
2023-04-20T09:57:32.000Z,281.96
2023-04-20T09:58:59.000Z,281.96
2023-04-20T10:01:05.000Z,281.71
2023-04-20T10:02:31.000Z,281.71
2023-04-20T10:04:38.000Z,281.71
2023-04-20T10:06:05.000Z,281.65
2023-04-20T10:08:11.000Z,281.71
2023-04-20T10:11:02.000Z,281.71
2023-04-20T10:12:28.000Z,281.65
2023-04-20T10:14:34.000Z,281.65
2023-04-20T10:16:01.000Z,281.59
2023-04-20T10:18:07.000Z,281.4
2023-04-20T10:19:34.000Z,281.46
2023-04-20T10:21:40.000Z,281.4
2023-04-20T10:23:06.000Z,281.46
2023-04-20T10:25:13.000Z,281.4
2023-04-20T10:26:39.000Z,281.46
2023-04-20T10:28:45.000Z,281.59
2023-04-20T10:30:12.000Z,281.65
2023-04-20T10:32:18.000Z,281.84
2023-04-20T10:33:44.000Z,281.84
2023-04-20T10:35:51.000Z,281.84
2023-04-20T10:37:17.000Z,281.84
2023-04-20T10:39:23.000Z,281.77
2023-04-20T10:40:50.000Z,281.77
2023-04-20T10:42:56.000Z,281.84
2023-04-20T10:44:22.000Z,281.84
2023-04-20T10:46:28.000Z,282.21
2023-04-20T10:49:20.000Z,282.02
2023-04-20T10:50:46.000Z,282.02
2023-04-20T10:52:52.000Z,282.15
2023-04-20T10:54:19.000Z,282.09
2023-04-20T10:56:25.000Z,282.21
2023-04-20T10:57:52.000Z,282.21
2023-04-20T10:59:58.000Z,282.34
2023-04-20T11:01:24.000Z,282.34
2023-04-20T11:03:31.000Z,282.27
2023-04-20T11:04:57.000Z,282.21
2023-04-20T11:07:03.000Z,282.15
2023-04-20T11:08:30.000Z,282.27
2023-04-20T11:10:36.000Z,282.52
2023-04-20T11:12:03.000Z,282.59
2023-04-20T11:14:09.000Z,282.84
2023-04-20T11:15:35.000Z,283.09
2023-04-20T11:17:41.000Z,283.15
2023-04-20T11:19:08.000Z,283.4
2023-04-20T11:21:14.000Z,283.4
2023-04-20T11:22:41.000Z,283.27
2023-04-20T11:24:47.000Z,282.96
2023-04-20T11:27:38.000Z,282.77
2023-04-20T11:29:04.000Z,282.77
2023-04-20T11:31:10.000Z,282.84
2023-04-20T11:32:37.000Z,282.9
2023-04-20T11:34:43.000Z,282.9
2023-04-20T11:36:14.000Z,282.9
2023-04-20T11:38:20.000Z,282.9
2023-04-20T11:39:47.000Z,282.9
2023-04-20T11:41:53.000Z,282.77
2023-04-20T11:43:19.000Z,282.77
2023-04-20T11:45:25.000Z,282.84
2023-04-20T11:46:52.000Z,282.84
2023-04-20T11:48:58.000Z,282.84
2023-04-20T11:50:25.000Z,282.84
2023-04-20T11:52:31.000Z,282.84
2023-04-20T11:53:57.000Z,283.15
2023-04-20T11:56:03.000Z,283.59
2023-04-20T11:57:30.000Z,283.77
2023-04-20T11:59:36.000Z,283.77
2023-04-20T12:01:03.000Z,283.77
2023-04-20T12:03:09.000Z,283.84
2023-04-20T12:06:00.000Z,283.84
2023-04-20T12:07:27.000Z,283.84
2023-04-20T12:09:33.000Z,283.84
2023-04-20T12:10:59.000Z,283.84
2023-04-20T12:13:05.000Z,283.84
2023-04-20T12:14:32.000Z,283.84
2023-04-20T12:16:38.000Z,284.09
2023-04-20T12:18:04.000Z,284.09
2023-04-20T12:20:11.000Z,283.71
2023-04-20T12:21:37.000Z,283.59
2023-04-20T12:23:43.000Z,283.46
2023-04-20T12:25:10.000Z,283.34
2023-04-20T12:27:16.000Z,283.15
2023-04-20T12:28:43.000Z,283.09
2023-04-20T12:30:49.000Z,282.96
2023-04-20T12:32:15.000Z,282.96
2023-04-20T12:34:21.000Z,282.84
2023-04-20T12:35:48.000Z,282.77
2023-04-20T12:37:54.000Z,282.65
2023-04-20T12:39:20.000Z,282.65
2023-04-20T12:41:27.000Z,282.65
2023-04-20T12:44:18.000Z,282.65
2023-04-20T12:45:45.000Z,282.71
2023-04-20T12:47:51.000Z,282.71
2023-04-20T12:49:21.000Z,282.71
2023-04-20T12:51:27.000Z,282.77
2023-04-20T12:52:53.000Z,282.77
2023-04-20T12:54:59.000Z,282.71
2023-04-20T12:56:26.000Z,282.71
2023-04-20T12:58:32.000Z,282.65
2023-04-20T12:59:58.000Z,282.59
2023-04-20T13:02:05.000Z,282.34
2023-04-20T13:03:31.000Z,282.09
2023-04-20T13:05:38.000Z,282.02
2023-04-20T13:07:04.000Z,281.96
2023-04-20T13:09:11.000Z,281.77
2023-04-20T13:10:37.000Z,281.71
2023-04-20T13:12:43.000Z,281.77
2023-04-20T13:14:10.000Z,281.71
2023-04-20T13:16:16.000Z,281.77
2023-04-20T13:17:42.000Z,281.77
2023-04-20T13:19:48.000Z,281.71
2023-04-20T13:22:40.000Z,281.59
2023-04-20T13:24:21.000Z,281.71
2023-04-20T13:26:27.000Z,281.65
2023-04-20T13:27:54.000Z,281.65
2023-04-20T13:30:00.000Z,281.65
2023-04-20T13:31:26.000Z,281.65
2023-04-20T13:33:33.000Z,281.52
2023-04-20T13:34:59.000Z,281.52
2023-04-20T13:37:05.000Z,281.52
2023-04-20T13:38:32.000Z,281.59
2023-04-20T13:40:38.000Z,281.46
2023-04-20T13:42:04.000Z,281.4
2023-04-20T13:44:10.000Z,281.4
2023-04-20T13:45:37.000Z,281.34
2023-04-20T13:47:43.000Z,281.34
2023-04-20T13:49:10.000Z,281.4
2023-04-20T13:51:17.000Z,281.27
2023-04-20T13:52:44.000Z,281.27
2023-04-20T13:54:50.000Z,281.21
2023-04-20T13:56:16.000Z,281.21
2023-04-20T13:58:23.000Z,281.15
2023-04-20T14:01:14.000Z,281.09
2023-04-20T14:02:41.000Z,281.09
2023-04-20T14:04:47.000Z,281.09
2023-04-20T14:06:14.000Z,281.09
2023-04-20T14:08:20.000Z,280.96
2023-04-20T14:09:46.000Z,280.96
2023-04-20T14:11:52.000Z,280.96
2023-04-20T14:13:21.000Z,280.96
2023-04-20T14:15:27.000Z,280.96
2023-04-20T14:16:54.000Z,281.02
2023-04-20T14:19:00.000Z,280.96
2023-04-20T14:20:27.000Z,280.96
2023-04-20T14:22:33.000Z,280.96
2023-04-20T14:23:59.000Z,280.96
2023-04-20T14:26:05.000Z,280.96
2023-04-20T14:27:32.000Z,280.96
2023-04-20T14:29:38.000Z,280.96
2023-04-20T14:31:05.000Z,280.96
2023-04-20T14:33:11.000Z,280.9
2023-04-20T14:34:37.000Z,280.9
2023-04-20T14:36:43.000Z,280.84
2023-04-20T14:39:34.000Z,280.84
2023-04-20T14:41:01.000Z,280.9
2023-04-20T14:43:07.000Z,280.84
2023-04-20T14:44:33.000Z,280.84
2023-04-20T14:46:39.000Z,280.84
2023-04-20T14:48:07.000Z,280.77
2023-04-20T14:50:13.000Z,280.77
2023-04-20T14:51:40.000Z,280.77
2023-04-20T14:53:46.000Z,280.77
2023-04-20T14:55:12.000Z,280.77
2023-04-20T14:57:18.000Z,280.71
2023-04-20T14:58:45.000Z,280.77
2023-04-20T15:00:51.000Z,280.71
2023-04-20T15:02:18.000Z,280.71
2023-04-20T15:04:24.000Z,280.71
2023-04-20T15:05:51.000Z,280.65
2023-04-20T15:07:57.000Z,280.71
2023-04-20T15:09:24.000Z,280.71
2023-04-20T15:11:30.000Z,280.71
2023-04-20T15:12:56.000Z,280.65
2023-04-20T15:15:03.000Z,280.65
2023-04-20T15:17:54.000Z,280.65
2023-04-20T15:19:20.000Z,280.65
2023-04-20T15:21:26.000Z,280.59
2023-04-20T15:22:53.000Z,280.59
2023-04-20T15:24:59.000Z,280.52
2023-04-20T15:26:26.000Z,280.59
2023-04-20T15:28:32.000Z,280.52
2023-04-20T15:29:58.000Z,280.52
2023-04-20T15:32:05.000Z,280.59
2023-04-20T15:33:31.000Z,280.59
2023-04-20T15:35:37.000Z,280.59
2023-04-20T15:37:04.000Z,280.59
2023-04-20T15:39:10.000Z,280.59
2023-04-20T15:40:36.000Z,280.59
2023-04-20T15:42:42.000Z,280.59
2023-04-20T15:44:09.000Z,280.59
2023-04-20T15:46:15.000Z,280.59
2023-04-20T15:47:42.000Z,280.52
2023-04-20T15:49:48.000Z,280.52
2023-04-20T15:51:14.000Z,280.52
2023-04-20T15:53:20.000Z,280.52
2023-04-20T15:56:11.000Z,280.52
2023-04-20T15:57:38.000Z,280.52
2023-04-20T15:59:46.000Z,280.52
2023-04-20T16:01:13.000Z,280.59
2023-04-20T16:03:19.000Z,280.59
2023-04-20T16:04:45.000Z,280.59
2023-04-20T16:06:52.000Z,280.59
2023-04-20T16:08:18.000Z,280.59
2023-04-20T16:10:24.000Z,280.59
2023-04-20T16:11:51.000Z,280.59
2023-04-20T16:13:57.000Z,280.59
2023-04-20T16:15:24.000Z,280.59
2023-04-20T16:17:30.000Z,280.59
2023-04-20T16:18:56.000Z,280.52
2023-04-20T16:21:02.000Z,280.59
2023-04-20T16:22:29.000Z,280.59
2023-04-20T16:24:35.000Z,280.59
2023-04-20T16:26:02.000Z,280.52
2023-04-20T16:28:08.000Z,280.59
2023-04-20T16:29:35.000Z,280.59
2023-04-20T16:31:41.000Z,280.52
2023-04-20T16:34:32.000Z,280.59
2023-04-20T16:35:59.000Z,280.59
2023-04-20T16:38:05.000Z,280.59
2023-04-20T16:39:34.000Z,280.52
2023-04-20T16:41:40.000Z,280.52
2023-04-20T16:43:07.000Z,280.52
2023-04-20T16:45:13.000Z,280.52
2023-04-20T16:46:39.000Z,280.59
2023-04-20T16:48:46.000Z,280.52
2023-04-20T16:50:12.000Z,280.59
2023-04-20T16:52:18.000Z,280.52
2023-04-20T16:53:45.000Z,280.52
2023-04-20T16:55:51.000Z,280.52
2023-04-20T16:57:18.000Z,280.52
2023-04-20T16:59:24.000Z,280.52
2023-04-20T17:00:50.000Z,280.52
2023-04-20T17:02:57.000Z,280.52
2023-04-20T17:04:23.000Z,280.52
2023-04-20T17:06:30.000Z,280.52
2023-04-20T17:07:56.000Z,280.52
2023-04-20T17:10:02.000Z,280.52
2023-04-20T17:12:54.000Z,280.52
2023-04-20T17:14:20.000Z,280.52
2023-04-20T17:16:26.000Z,280.52
2023-04-20T17:17:53.000Z,280.52
2023-04-20T17:19:59.000Z,280.52
2023-04-20T17:21:26.000Z,280.52
2023-04-20T17:23:32.000Z,280.52
2023-04-20T17:24:58.000Z,280.59
2023-04-20T17:27:04.000Z,280.59
2023-04-20T17:28:31.000Z,280.59
2023-04-20T17:30:37.000Z,280.59
2023-04-20T17:32:03.000Z,280.59
2023-04-20T17:34:10.000Z,280.52
2023-04-20T17:35:36.000Z,280.59
2023-04-20T17:37:42.000Z,280.52
2023-04-20T17:39:09.000Z,280.59
2023-04-20T17:41:15.000Z,280.52
2023-04-20T17:42:41.000Z,280.52
2023-04-20T17:44:47.000Z,280.52
2023-04-20T17:46:14.000Z,280.52
2023-04-20T17:48:20.000Z,280.59
2023-04-20T17:51:11.000Z,280.52
2023-04-20T17:52:38.000Z,280.52
2023-04-20T17:54:44.000Z,280.52
2023-04-20T17:56:11.000Z,280.52
2023-04-20T17:58:17.000Z,280.52
2023-04-20T17:59:43.000Z,280.52
2023-04-20T18:01:49.000Z,280.52
2023-04-20T18:03:16.000Z,280.52
2023-04-20T18:05:22.000Z,280.52
2023-04-20T18:06:49.000Z,280.52
2023-04-20T18:08:55.000Z,280.52
2023-04-20T18:10:22.000Z,280.52
2023-04-20T18:12:28.000Z,280.52
2023-04-20T18:13:54.000Z,280.52
2023-04-20T18:16:00.000Z,280.46
2023-04-20T18:17:27.000Z,280.52
2023-04-20T18:19:33.000Z,280.46
2023-04-20T18:21:00.000Z,280.52
2023-04-20T18:23:06.000Z,280.46
2023-04-20T18:24:32.000Z,280.46
2023-04-20T18:26:38.000Z,280.46
2023-04-20T18:29:29.000Z,280.46
2023-04-20T18:30:56.000Z,280.46
2023-04-20T18:33:03.000Z,280.46
2023-04-20T18:34:29.000Z,280.46
2023-04-20T18:36:35.000Z,280.4
2023-04-20T18:38:02.000Z,280.4
2023-04-20T18:40:08.000Z,280.4
2023-04-20T18:41:35.000Z,280.4
2023-04-20T18:43:41.000Z,280.4
2023-04-20T18:45:07.000Z,280.46
2023-04-20T18:47:13.000Z,280.4
2023-04-20T18:48:40.000Z,280.4
2023-04-20T18:50:46.000Z,280.4
2023-04-20T18:52:13.000Z,280.4
2023-04-20T18:54:19.000Z,280.4
2023-04-20T18:55:45.000Z,280.4
2023-04-20T18:57:51.000Z,280.34
2023-04-20T18:59:18.000Z,280.34
2023-04-20T19:01:24.000Z,280.34
2023-04-20T19:02:51.000Z,280.34
2023-04-20T19:04:57.000Z,280.34
2023-04-20T19:07:48.000Z,280.27
2023-04-20T19:09:15.000Z,280.34
2023-04-20T19:11:21.000Z,280.27
2023-04-20T19:12:47.000Z,280.34
2023-04-20T19:14:53.000Z,280.27
2023-04-20T19:16:20.000Z,280.27
2023-04-20T19:18:26.000Z,280.27
2023-04-20T19:19:53.000Z,280.34
2023-04-20T19:21:59.000Z,280.34
2023-04-20T19:23:25.000Z,280.34
2023-04-20T19:25:31.000Z,280.34
2023-04-20T19:26:58.000Z,280.27
2023-04-20T19:29:04.000Z,280.27
2023-04-20T19:30:30.000Z,280.34
2023-04-20T19:32:36.000Z,280.27
2023-04-20T19:34:03.000Z,280.34
2023-04-20T19:36:09.000Z,280.27
2023-04-20T19:37:36.000Z,280.27
2023-04-20T19:39:42.000Z,280.27
2023-04-20T19:41:08.000Z,280.27
2023-04-20T19:43:14.000Z,280.27
2023-04-20T19:46:05.000Z,280.27
2023-04-20T19:47:32.000Z,280.27
2023-04-20T19:49:39.000Z,280.27
2023-04-20T19:51:05.000Z,280.34
2023-04-20T19:53:11.000Z,280.27
2023-04-20T19:54:38.000Z,280.27
2023-04-20T19:56:44.000Z,280.27
2023-04-20T19:58:10.000Z,280.27
2023-04-20T20:00:16.000Z,280.34
2023-04-20T20:01:43.000Z,280.34
2023-04-20T20:03:49.000Z,280.27
2023-04-20T20:05:16.000Z,280.27
2023-04-20T20:07:22.000Z,280.27
2023-04-20T20:08:49.000Z,280.27
2023-04-20T20:10:55.000Z,280.27
2023-04-20T20:12:21.000Z,280.27
2023-04-20T20:14:27.000Z,280.27
2023-04-20T20:15:54.000Z,280.27
2023-04-20T20:18:00.000Z,280.21
2023-04-20T20:19:27.000Z,280.27
2023-04-20T20:21:33.000Z,280.27
2023-04-20T20:24:24.000Z,280.27
2023-04-20T20:25:50.000Z,280.27
2023-04-20T20:27:57.000Z,280.27
2023-04-20T20:29:23.000Z,280.27
2023-04-20T20:31:29.000Z,280.27
2023-04-20T20:32:56.000Z,280.27
2023-04-20T20:35:02.000Z,280.27
2023-04-20T20:36:28.000Z,280.27
2023-04-20T20:38:34.000Z,280.27
2023-04-20T20:40:01.000Z,280.27
2023-04-20T20:42:07.000Z,280.27
2023-04-20T20:43:34.000Z,280.27
2023-04-20T20:45:40.000Z,280.27
2023-04-20T20:47:06.000Z,280.27
2023-04-20T20:49:12.000Z,280.27
2023-04-20T20:50:39.000Z,280.27
2023-04-20T20:52:45.000Z,280.27
2023-04-20T20:54:12.000Z,280.27
2023-04-20T20:56:18.000Z,280.27
2023-04-20T20:57:44.000Z,280.27
2023-04-20T20:59:50.000Z,280.27
2023-04-20T21:02:42.000Z,280.27
2023-04-20T21:04:09.000Z,280.27
2023-04-20T21:06:16.000Z,280.27
2023-04-20T21:07:42.000Z,280.27
2023-04-20T21:09:48.000Z,280.27
2023-04-20T21:11:15.000Z,280.27
2023-04-20T21:13:21.000Z,280.27
2023-04-20T21:14:47.000Z,280.27
2023-04-20T21:16:53.000Z,280.27
2023-04-20T21:18:20.000Z,280.27
2023-04-20T21:20:26.000Z,280.27
2023-04-20T21:21:53.000Z,280.27
2023-04-20T21:23:59.000Z,280.27
2023-04-20T21:25:25.000Z,280.27
2023-04-20T21:27:31.000Z,280.27
2023-04-20T21:28:58.000Z,280.34
2023-04-20T21:31:04.000Z,280.34
2023-04-20T21:32:31.000Z,280.27
2023-04-20T21:34:37.000Z,280.27
2023-04-20T21:36:04.000Z,280.27
2023-04-20T21:38:10.000Z,280.27
2023-04-20T21:41:01.000Z,280.34
2023-04-20T21:42:27.000Z,280.34
2023-04-20T21:44:33.000Z,280.27
2023-04-20T21:46:00.000Z,280.34
2023-04-20T21:48:06.000Z,280.34
2023-04-20T21:49:33.000Z,280.34
2023-04-20T21:51:39.000Z,280.34
2023-04-20T21:53:05.000Z,280.34
2023-04-20T21:55:11.000Z,280.34
2023-04-20T21:56:38.000Z,280.34
2023-04-20T21:58:44.000Z,280.27
2023-04-20T22:00:10.000Z,280.34
2023-04-20T22:02:16.000Z,280.34
2023-04-20T22:03:43.000Z,280.34
2023-04-20T22:05:50.000Z,280.34
2023-04-20T22:07:16.000Z,280.34
2023-04-20T22:09:22.000Z,280.27
2023-04-20T22:10:49.000Z,280.34
2023-04-20T22:12:55.000Z,280.27
2023-04-20T22:14:21.000Z,280.27
2023-04-20T22:16:28.000Z,280.27
2023-04-20T22:19:19.000Z,280.27
2023-04-20T22:20:46.000Z,280.27
2023-04-20T22:22:52.000Z,280.21
2023-04-20T22:24:18.000Z,280.27
2023-04-20T22:26:24.000Z,280.27
2023-04-20T22:27:51.000Z,280.27
2023-04-20T22:29:57.000Z,280.27
2023-04-20T22:31:23.000Z,280.34
2023-04-20T22:33:30.000Z,280.27
2023-04-20T22:34:56.000Z,280.34
2023-04-20T22:37:02.000Z,280.27
2023-04-20T22:38:29.000Z,280.34
2023-04-20T22:40:35.000Z,280.34
2023-04-20T22:42:01.000Z,280.4
2023-04-20T22:44:07.000Z,280.4
2023-04-20T22:45:34.000Z,280.34
2023-04-20T22:47:40.000Z,280.4
2023-04-20T22:49:07.000Z,280.4